sensor_id;sensor_type;location;lat;lon;timestamp;P1;durP1;ratioP1;P2;durP2;ratioP2
46288;SDS011;63105;46.158;14.604;2023-03-01T00:00:25;23.13;;;15.80;;
46288;SDS011;63105;46.158;14.604;2023-03-01T00:02:50;22.33;;;14.73;;
46288;SDS011;63105;46.158;14.604;2023-03-01T00:05:15;23.52;;;15.75;;
46288;SDS011;63105;46.158;14.604;2023-03-01T00:07:41;24.00;;;15.70;;
46288;SDS011;63105;46.158;14.604;2023-03-01T00:10:06;21.27;;;14.43;;
46288;SDS011;63105;46.158;14.604;2023-03-01T00:12:31;24.45;;;15.60;;
46288;SDS011;63105;46.158;14.604;2023-03-01T00:14:56;23.23;;;14.80;;
46288;SDS011;63105;46.158;14.604;2023-03-01T00:17:22;23.60;;;15.23;;
46288;SDS011;63105;46.158;14.604;2023-03-01T00:19:47;25.00;;;16.48;;
46288;SDS011;63105;46.158;14.604;2023-03-01T00:22:12;25.80;;;16.92;;
46288;SDS011;63105;46.158;14.604;2023-03-01T00:24:37;25.17;;;16.60;;
46288;SDS011;63105;46.158;14.604;2023-03-01T00:27:03;25.42;;;17.02;;
46288;SDS011;63105;46.158;14.604;2023-03-01T00:29:28;27.38;;;17.38;;
46288;SDS011;63105;46.158;14.604;2023-03-01T00:31:53;30.70;;;18.50;;
46288;SDS011;63105;46.158;14.604;2023-03-01T00:34:18;26.23;;;16.55;;
46288;SDS011;63105;46.158;14.604;2023-03-01T00:36:44;24.55;;;16.10;;
46288;SDS011;63105;46.158;14.604;2023-03-01T00:39:11;25.20;;;16.15;;
46288;SDS011;63105;46.158;14.604;2023-03-01T00:41:37;24.15;;;16.08;;
46288;SDS011;63105;46.158;14.604;2023-03-01T00:44:05;28.05;;;18.25;;
46288;SDS011;63105;46.158;14.604;2023-03-01T00:46:30;26.92;;;17.30;;
46288;SDS011;63105;46.158;14.604;2023-03-01T00:48:56;24.38;;;16.80;;
46288;SDS011;63105;46.158;14.604;2023-03-01T00:51:25;25.17;;;17.08;;
46288;SDS011;63105;46.158;14.604;2023-03-01T00:53:54;24.75;;;16.75;;
46288;SDS011;63105;46.158;14.604;2023-03-01T00:56:20;23.52;;;15.77;;
46288;SDS011;63105;46.158;14.604;2023-03-01T00:58:45;24.17;;;15.48;;
46288;SDS011;63105;46.158;14.604;2023-03-01T01:01:12;30.00;;;19.15;;
46288;SDS011;63105;46.158;14.604;2023-03-01T01:06:15;23.43;;;15.67;;
46288;SDS011;63105;46.158;14.604;2023-03-01T01:08:40;24.95;;;16.63;;
46288;SDS011;63105;46.158;14.604;2023-03-01T01:11:05;25.83;;;17.80;;
46288;SDS011;63105;46.158;14.604;2023-03-01T01:13:33;26.00;;;16.52;;
46288;SDS011;63105;46.158;14.604;2023-03-01T01:16:01;25.63;;;16.92;;
46288;SDS011;63105;46.158;14.604;2023-03-01T01:18:27;24.67;;;15.90;;
46288;SDS011;63105;46.158;14.604;2023-03-01T01:20:52;28.25;;;18.20;;
46288;SDS011;63105;46.158;14.604;2023-03-01T01:23:17;25.77;;;16.33;;
46288;SDS011;63105;46.158;14.604;2023-03-01T01:25:42;24.85;;;16.50;;
46288;SDS011;63105;46.158;14.604;2023-03-01T01:28:08;24.65;;;16.48;;
46288;SDS011;63105;46.158;14.604;2023-03-01T01:30:33;23.88;;;15.73;;
46288;SDS011;63105;46.158;14.604;2023-03-01T01:32:58;24.42;;;15.82;;
46288;SDS011;63105;46.158;14.604;2023-03-01T01:35:23;27.35;;;18.05;;
46288;SDS011;63105;46.158;14.604;2023-03-01T01:37:49;26.48;;;17.75;;
46288;SDS011;63105;46.158;14.604;2023-03-01T01:40:14;27.25;;;18.30;;
46288;SDS011;63105;46.158;14.604;2023-03-01T01:42:40;27.60;;;17.88;;
46288;SDS011;63105;46.158;14.604;2023-03-01T01:47:48;28.17;;;17.85;;
46288;SDS011;63105;46.158;14.604;2023-03-01T01:50:14;29.55;;;19.48;;
46288;SDS011;63105;46.158;14.604;2023-03-01T01:52:42;29.80;;;19.58;;
46288;SDS011;63105;46.158;14.604;2023-03-01T01:57:37;30.58;;;19.35;;
46288;SDS011;63105;46.158;14.604;2023-03-01T02:00:09;26.30;;;18.13;;
46288;SDS011;63105;46.158;14.604;2023-03-01T02:02:34;25.23;;;17.40;;
46288;SDS011;63105;46.158;14.604;2023-03-01T02:05:03;24.73;;;16.48;;
46288;SDS011;63105;46.158;14.604;2023-03-01T02:07:35;27.02;;;17.70;;
46288;SDS011;63105;46.158;14.604;2023-03-01T02:10:01;25.23;;;16.08;;
46288;SDS011;63105;46.158;14.604;2023-03-01T02:12:27;29.95;;;19.20;;
46288;SDS011;63105;46.158;14.604;2023-03-01T02:14:52;27.88;;;17.73;;
46288;SDS011;63105;46.158;14.604;2023-03-01T02:17:17;27.42;;;17.80;;
46288;SDS011;63105;46.158;14.604;2023-03-01T02:20:04;26.52;;;17.33;;
46288;SDS011;63105;46.158;14.604;2023-03-01T02:22:32;26.88;;;16.73;;
46288;SDS011;63105;46.158;14.604;2023-03-01T02:30:22;26.05;;;16.52;;
46288;SDS011;63105;46.158;14.604;2023-03-01T02:32:49;23.98;;;15.80;;
46288;SDS011;63105;46.158;14.604;2023-03-01T02:35:15;23.50;;;15.57;;
46288;SDS011;63105;46.158;14.604;2023-03-01T02:37:41;22.80;;;15.80;;
46288;SDS011;63105;46.158;14.604;2023-03-01T02:40:08;25.92;;;17.70;;
46288;SDS011;63105;46.158;14.604;2023-03-01T02:42:37;29.17;;;18.33;;
46288;SDS011;63105;46.158;14.604;2023-03-01T02:45:06;24.90;;;15.98;;
46288;SDS011;63105;46.158;14.604;2023-03-01T02:47:31;25.23;;;16.48;;
46288;SDS011;63105;46.158;14.604;2023-03-01T02:49:56;24.83;;;15.73;;
46288;SDS011;63105;46.158;14.604;2023-03-01T02:52:30;24.20;;;16.08;;
46288;SDS011;63105;46.158;14.604;2023-03-01T02:57:33;25.38;;;16.65;;
46288;SDS011;63105;46.158;14.604;2023-03-01T03:00:04;24.17;;;16.20;;
46288;SDS011;63105;46.158;14.604;2023-03-01T03:02:33;25.65;;;17.30;;
46288;SDS011;63105;46.158;14.604;2023-03-01T03:05:06;25.98;;;15.82;;
46288;SDS011;63105;46.158;14.604;2023-03-01T03:07:33;24.55;;;16.52;;
46288;SDS011;63105;46.158;14.604;2023-03-01T03:10:00;23.63;;;15.32;;
46288;SDS011;63105;46.158;14.604;2023-03-01T03:12:25;24.65;;;15.95;;
46288;SDS011;63105;46.158;14.604;2023-03-01T03:14:50;25.00;;;16.35;;
46288;SDS011;63105;46.158;14.604;2023-03-01T03:17:15;24.23;;;15.93;;
46288;SDS011;63105;46.158;14.604;2023-03-01T03:19:41;23.83;;;16.45;;
46288;SDS011;63105;46.158;14.604;2023-03-01T03:22:08;24.10;;;16.45;;
46288;SDS011;63105;46.158;14.604;2023-03-01T03:24:33;23.13;;;15.82;;
46288;SDS011;63105;46.158;14.604;2023-03-01T03:27:03;23.98;;;16.13;;
46288;SDS011;63105;46.158;14.604;2023-03-01T03:29:28;24.42;;;16.20;;
46288;SDS011;63105;46.158;14.604;2023-03-01T03:31:53;24.83;;;15.88;;
46288;SDS011;63105;46.158;14.604;2023-03-01T03:34:18;25.15;;;16.17;;
46288;SDS011;63105;46.158;14.604;2023-03-01T03:36:44;23.85;;;15.85;;
46288;SDS011;63105;46.158;14.604;2023-03-01T03:39:09;24.83;;;16.52;;
46288;SDS011;63105;46.158;14.604;2023-03-01T03:41:34;25.15;;;16.42;;
46288;SDS011;63105;46.158;14.604;2023-03-01T03:44:00;25.13;;;17.25;;
46288;SDS011;63105;46.158;14.604;2023-03-01T03:46:25;23.38;;;16.33;;
46288;SDS011;63105;46.158;14.604;2023-03-01T03:48:51;25.77;;;16.38;;
46288;SDS011;63105;46.158;14.604;2023-03-01T03:51:16;24.23;;;15.95;;
46288;SDS011;63105;46.158;14.604;2023-03-01T03:53:42;26.40;;;16.20;;
46288;SDS011;63105;46.158;14.604;2023-03-01T03:56:08;26.75;;;16.42;;
46288;SDS011;63105;46.158;14.604;2023-03-01T03:58:33;25.95;;;16.48;;
46288;SDS011;63105;46.158;14.604;2023-03-01T04:00:59;22.80;;;15.85;;
46288;SDS011;63105;46.158;14.604;2023-03-01T04:03:26;23.38;;;15.60;;
46288;SDS011;63105;46.158;14.604;2023-03-01T04:05:51;24.52;;;15.88;;
46288;SDS011;63105;46.158;14.604;2023-03-01T04:08:21;22.92;;;15.25;;
46288;SDS011;63105;46.158;14.604;2023-03-01T04:10:47;23.23;;;15.70;;
46288;SDS011;63105;46.158;14.604;2023-03-01T04:13:14;22.83;;;15.63;;
46288;SDS011;63105;46.158;14.604;2023-03-01T04:15:40;23.30;;;15.18;;
46288;SDS011;63105;46.158;14.604;2023-03-01T04:18:06;22.33;;;15.40;;
46288;SDS011;63105;46.158;14.604;2023-03-01T04:20:32;23.35;;;15.27;;
46288;SDS011;63105;46.158;14.604;2023-03-01T04:23:07;23.00;;;15.20;;
46288;SDS011;63105;46.158;14.604;2023-03-01T04:25:41;21.65;;;14.88;;
46288;SDS011;63105;46.158;14.604;2023-03-01T04:28:07;20.33;;;14.57;;
46288;SDS011;63105;46.158;14.604;2023-03-01T04:30:32;21.38;;;14.80;;
46288;SDS011;63105;46.158;14.604;2023-03-01T04:33:01;23.00;;;14.65;;
46288;SDS011;63105;46.158;14.604;2023-03-01T04:35:26;19.77;;;14.40;;
46288;SDS011;63105;46.158;14.604;2023-03-01T04:37:52;22.38;;;14.68;;
46288;SDS011;63105;46.158;14.604;2023-03-01T04:40:17;20.55;;;14.98;;
46288;SDS011;63105;46.158;14.604;2023-03-01T04:42:43;23.92;;;15.05;;
46288;SDS011;63105;46.158;14.604;2023-03-01T04:45:08;21.45;;;14.88;;
46288;SDS011;63105;46.158;14.604;2023-03-01T04:47:38;23.35;;;14.43;;
46288;SDS011;63105;46.158;14.604;2023-03-01T04:50:04;19.75;;;13.93;;
46288;SDS011;63105;46.158;14.604;2023-03-01T04:52:29;24.50;;;16.23;;
46288;SDS011;63105;46.158;14.604;2023-03-01T04:54:54;25.90;;;18.00;;
46288;SDS011;63105;46.158;14.604;2023-03-01T04:57:19;23.27;;;15.75;;
46288;SDS011;63105;46.158;14.604;2023-03-01T04:59:44;22.55;;;15.15;;
46288;SDS011;63105;46.158;14.604;2023-03-01T05:02:10;22.15;;;14.10;;
46288;SDS011;63105;46.158;14.604;2023-03-01T05:04:35;20.13;;;14.50;;
46288;SDS011;63105;46.158;14.604;2023-03-01T05:07:00;23.15;;;16.00;;
46288;SDS011;63105;46.158;14.604;2023-03-01T05:09:25;23.75;;;15.05;;
46288;SDS011;63105;46.158;14.604;2023-03-01T05:11:51;22.25;;;14.88;;
46288;SDS011;63105;46.158;14.604;2023-03-01T05:14:16;22.17;;;14.88;;
46288;SDS011;63105;46.158;14.604;2023-03-01T05:16:42;22.35;;;15.00;;
46288;SDS011;63105;46.158;14.604;2023-03-01T05:19:07;21.88;;;14.55;;
46288;SDS011;63105;46.158;14.604;2023-03-01T05:21:47;19.90;;;14.05;;
46288;SDS011;63105;46.158;14.604;2023-03-01T05:24:29;21.05;;;14.20;;
46288;SDS011;63105;46.158;14.604;2023-03-01T05:26:55;21.45;;;14.48;;
46288;SDS011;63105;46.158;14.604;2023-03-01T05:29:23;21.58;;;14.00;;
46288;SDS011;63105;46.158;14.604;2023-03-01T05:31:55;21.75;;;14.55;;
46288;SDS011;63105;46.158;14.604;2023-03-01T05:34:24;21.33;;;14.63;;
46288;SDS011;63105;46.158;14.604;2023-03-01T05:36:50;22.33;;;14.68;;
46288;SDS011;63105;46.158;14.604;2023-03-01T05:39:18;22.05;;;15.27;;
46288;SDS011;63105;46.158;14.604;2023-03-01T05:41:43;21.10;;;14.63;;
46288;SDS011;63105;46.158;14.604;2023-03-01T05:44:09;22.98;;;15.50;;
46288;SDS011;63105;46.158;14.604;2023-03-01T05:46:34;22.67;;;15.73;;
46288;SDS011;63105;46.158;14.604;2023-03-01T05:48:59;22.33;;;15.32;;
46288;SDS011;63105;46.158;14.604;2023-03-01T05:51:25;22.63;;;15.55;;
46288;SDS011;63105;46.158;14.604;2023-03-01T05:53:51;25.40;;;15.73;;
46288;SDS011;63105;46.158;14.604;2023-03-01T05:56:16;22.40;;;14.60;;
46288;SDS011;63105;46.158;14.604;2023-03-01T05:58:41;24.63;;;16.40;;
46288;SDS011;63105;46.158;14.604;2023-03-01T06:01:10;21.65;;;15.07;;
46288;SDS011;63105;46.158;14.604;2023-03-01T06:03:36;23.95;;;15.13;;
46288;SDS011;63105;46.158;14.604;2023-03-01T06:06:01;21.75;;;14.52;;
46288;SDS011;63105;46.158;14.604;2023-03-01T06:08:29;21.90;;;15.18;;
46288;SDS011;63105;46.158;14.604;2023-03-01T06:10:54;21.10;;;14.55;;
46288;SDS011;63105;46.158;14.604;2023-03-01T06:13:19;21.80;;;14.32;;
46288;SDS011;63105;46.158;14.604;2023-03-01T06:15:45;23.83;;;14.82;;
46288;SDS011;63105;46.158;14.604;2023-03-01T06:21:30;21.75;;;14.43;;
46288;SDS011;63105;46.158;14.604;2023-03-01T06:23:55;21.58;;;13.85;;
46288;SDS011;63105;46.158;14.604;2023-03-01T06:26:20;21.45;;;14.25;;
46288;SDS011;63105;46.158;14.604;2023-03-01T06:28:46;21.02;;;14.43;;
46288;SDS011;63105;46.158;14.604;2023-03-01T06:31:11;22.70;;;14.70;;
46288;SDS011;63105;46.158;14.604;2023-03-01T06:33:39;23.23;;;14.93;;
46288;SDS011;63105;46.158;14.604;2023-03-01T06:36:05;23.15;;;15.32;;
46288;SDS011;63105;46.158;14.604;2023-03-01T06:38:30;24.40;;;16.85;;
46288;SDS011;63105;46.158;14.604;2023-03-01T06:40:55;23.33;;;15.95;;
46288;SDS011;63105;46.158;14.604;2023-03-01T06:43:21;22.70;;;15.70;;
46288;SDS011;63105;46.158;14.604;2023-03-01T06:45:47;26.60;;;17.45;;
46288;SDS011;63105;46.158;14.604;2023-03-01T06:48:12;23.65;;;16.30;;
46288;SDS011;63105;46.158;14.604;2023-03-01T06:50:37;26.55;;;17.33;;
46288;SDS011;63105;46.158;14.604;2023-03-01T06:53:03;24.13;;;16.40;;
46288;SDS011;63105;46.158;14.604;2023-03-01T06:55:29;24.73;;;17.67;;
46288;SDS011;63105;46.158;14.604;2023-03-01T06:57:57;26.73;;;17.67;;
46288;SDS011;63105;46.158;14.604;2023-03-01T07:00:23;34.25;;;22.60;;
46288;SDS011;63105;46.158;14.604;2023-03-01T07:02:49;29.60;;;21.05;;
46288;SDS011;63105;46.158;14.604;2023-03-01T07:05:14;31.50;;;21.77;;
46288;SDS011;63105;46.158;14.604;2023-03-01T07:07:39;31.60;;;21.35;;
46288;SDS011;63105;46.158;14.604;2023-03-01T07:10:04;31.50;;;22.25;;
46288;SDS011;63105;46.158;14.604;2023-03-01T07:12:30;36.50;;;25.15;;
46288;SDS011;63105;46.158;14.604;2023-03-01T07:14:55;38.40;;;26.45;;
46288;SDS011;63105;46.158;14.604;2023-03-01T07:17:20;37.17;;;25.42;;
46288;SDS011;63105;46.158;14.604;2023-03-01T07:19:46;34.28;;;23.77;;
46288;SDS011;63105;46.158;14.604;2023-03-01T07:22:11;33.13;;;23.08;;
46288;SDS011;63105;46.158;14.604;2023-03-01T07:24:36;34.08;;;22.75;;
46288;SDS011;63105;46.158;14.604;2023-03-01T07:27:02;36.25;;;23.33;;
46288;SDS011;63105;46.158;14.604;2023-03-01T07:29:27;33.20;;;22.08;;
46288;SDS011;63105;46.158;14.604;2023-03-01T07:31:53;29.90;;;20.02;;
46288;SDS011;63105;46.158;14.604;2023-03-01T07:34:19;32.95;;;20.98;;
46288;SDS011;63105;46.158;14.604;2023-03-01T07:36:44;40.92;;;26.52;;
46288;SDS011;63105;46.158;14.604;2023-03-01T07:39:10;32.53;;;21.48;;
46288;SDS011;63105;46.158;14.604;2023-03-01T07:41:35;36.72;;;23.80;;
46288;SDS011;63105;46.158;14.604;2023-03-01T07:44:01;36.80;;;23.73;;
46288;SDS011;63105;46.158;14.604;2023-03-01T07:46:26;37.88;;;23.45;;
46288;SDS011;63105;46.158;14.604;2023-03-01T07:48:51;35.80;;;22.83;;
46288;SDS011;63105;46.158;14.604;2023-03-01T07:51:16;39.13;;;23.75;;
46288;SDS011;63105;46.158;14.604;2023-03-01T07:53:42;41.72;;;28.05;;
46288;SDS011;63105;46.158;14.604;2023-03-01T07:56:08;38.28;;;24.52;;
46288;SDS011;63105;46.158;14.604;2023-03-01T07:58:34;42.33;;;27.75;;
46288;SDS011;63105;46.158;14.604;2023-03-01T08:01:06;37.97;;;25.05;;
46288;SDS011;63105;46.158;14.604;2023-03-01T08:03:32;41.05;;;26.88;;
46288;SDS011;63105;46.158;14.604;2023-03-01T08:06:01;40.10;;;25.17;;
46288;SDS011;63105;46.158;14.604;2023-03-01T08:08:27;39.80;;;26.13;;
46288;SDS011;63105;46.158;14.604;2023-03-01T08:10:52;40.35;;;26.42;;
46288;SDS011;63105;46.158;14.604;2023-03-01T08:13:17;40.20;;;25.90;;
46288;SDS011;63105;46.158;14.604;2023-03-01T08:15:47;42.13;;;28.23;;
46288;SDS011;63105;46.158;14.604;2023-03-01T08:18:13;37.53;;;24.67;;
46288;SDS011;63105;46.158;14.604;2023-03-01T08:20:38;40.65;;;27.38;;
46288;SDS011;63105;46.158;14.604;2023-03-01T08:23:03;43.83;;;28.90;;
46288;SDS011;63105;46.158;14.604;2023-03-01T08:25:28;36.92;;;24.10;;
46288;SDS011;63105;46.158;14.604;2023-03-01T08:27:53;30.95;;;21.33;;
46288;SDS011;63105;46.158;14.604;2023-03-01T08:30:19;34.97;;;22.00;;
46288;SDS011;63105;46.158;14.604;2023-03-01T08:32:45;30.10;;;21.38;;
46288;SDS011;63105;46.158;14.604;2023-03-01T08:35:10;34.90;;;23.48;;
46288;SDS011;63105;46.158;14.604;2023-03-01T08:37:36;30.67;;;21.27;;
46288;SDS011;63105;46.158;14.604;2023-03-01T08:40:01;32.92;;;22.38;;
46288;SDS011;63105;46.158;14.604;2023-03-01T08:42:27;30.80;;;20.42;;
46288;SDS011;63105;46.158;14.604;2023-03-01T08:44:52;28.40;;;19.15;;
46288;SDS011;63105;46.158;14.604;2023-03-01T08:47:18;29.48;;;20.67;;
46288;SDS011;63105;46.158;14.604;2023-03-01T08:49:43;34.80;;;22.48;;
46288;SDS011;63105;46.158;14.604;2023-03-01T08:52:08;35.85;;;22.85;;
46288;SDS011;63105;46.158;14.604;2023-03-01T08:54:33;32.60;;;22.85;;
46288;SDS011;63105;46.158;14.604;2023-03-01T08:57:01;31.30;;;21.52;;
46288;SDS011;63105;46.158;14.604;2023-03-01T08:59:26;27.73;;;19.90;;
46288;SDS011;63105;46.158;14.604;2023-03-01T09:01:51;32.67;;;20.73;;
46288;SDS011;63105;46.158;14.604;2023-03-01T09:04:17;32.45;;;21.83;;
46288;SDS011;63105;46.158;14.604;2023-03-01T09:06:43;29.77;;;20.42;;
46288;SDS011;63105;46.158;14.604;2023-03-01T09:09:12;30.33;;;20.17;;
46288;SDS011;63105;46.158;14.604;2023-03-01T09:11:39;33.78;;;22.80;;
46288;SDS011;63105;46.158;14.604;2023-03-01T09:14:05;33.63;;;23.98;;
46288;SDS011;63105;46.158;14.604;2023-03-01T09:16:30;35.75;;;23.95;;
46288;SDS011;63105;46.158;14.604;2023-03-01T09:19:00;31.98;;;22.63;;
46288;SDS011;63105;46.158;14.604;2023-03-01T09:21:25;32.90;;;23.70;;
46288;SDS011;63105;46.158;14.604;2023-03-01T09:23:51;32.63;;;22.00;;
46288;SDS011;63105;46.158;14.604;2023-03-01T09:26:20;30.80;;;21.15;;
46288;SDS011;63105;46.158;14.604;2023-03-01T09:28:47;33.55;;;22.55;;
46288;SDS011;63105;46.158;14.604;2023-03-01T09:31:12;33.03;;;21.50;;
46288;SDS011;63105;46.158;14.604;2023-03-01T09:33:38;26.05;;;18.63;;
46288;SDS011;63105;46.158;14.604;2023-03-01T09:36:04;32.53;;;21.75;;
46288;SDS011;63105;46.158;14.604;2023-03-01T09:38:30;29.75;;;20.88;;
46288;SDS011;63105;46.158;14.604;2023-03-01T09:40:56;32.05;;;22.02;;
46288;SDS011;63105;46.158;14.604;2023-03-01T09:43:32;31.40;;;21.75;;
46288;SDS011;63105;46.158;14.604;2023-03-01T09:45:59;28.70;;;20.88;;
46288;SDS011;63105;46.158;14.604;2023-03-01T09:48:28;28.02;;;20.10;;
46288;SDS011;63105;46.158;14.604;2023-03-01T09:50:56;27.27;;;19.42;;
46288;SDS011;63105;46.158;14.604;2023-03-01T09:53:22;27.90;;;19.85;;
46288;SDS011;63105;46.158;14.604;2023-03-01T09:55:54;33.20;;;22.55;;
46288;SDS011;63105;46.158;14.604;2023-03-01T09:58:41;33.03;;;21.53;;
46288;SDS011;63105;46.158;14.604;2023-03-01T10:01:19;34.05;;;23.63;;
46288;SDS011;63105;46.158;14.604;2023-03-01T10:04:00;33.72;;;23.67;;
46288;SDS011;63105;46.158;14.604;2023-03-01T10:06:28;35.08;;;23.23;;
46288;SDS011;63105;46.158;14.604;2023-03-01T10:08:55;32.88;;;23.88;;
46288;SDS011;63105;46.158;14.604;2023-03-01T10:11:27;36.30;;;24.80;;
46288;SDS011;63105;46.158;14.604;2023-03-01T10:13:58;30.30;;;21.98;;
46288;SDS011;63105;46.158;14.604;2023-03-01T10:16:28;32.28;;;22.77;;
46288;SDS011;63105;46.158;14.604;2023-03-01T10:18:59;33.20;;;22.67;;
46288;SDS011;63105;46.158;14.604;2023-03-01T10:21:25;36.35;;;24.65;;
46288;SDS011;63105;46.158;14.604;2023-03-01T10:23:51;37.70;;;25.40;;
46288;SDS011;63105;46.158;14.604;2023-03-01T10:27:04;31.48;;;21.85;;
46288;SDS011;63105;46.158;14.604;2023-03-01T10:29:10;31.73;;;21.83;;
46288;SDS011;63105;46.158;14.604;2023-03-01T10:36:56;36.35;;;24.17;;
46288;SDS011;63105;46.158;14.604;2023-03-01T10:39:22;37.97;;;25.92;;
46288;SDS011;63105;46.158;14.604;2023-03-01T10:41:52;38.15;;;26.88;;
46288;SDS011;63105;46.158;14.604;2023-03-01T10:47:00;45.92;;;29.20;;
46288;SDS011;63105;46.158;14.604;2023-03-01T10:49:26;34.85;;;23.60;;
46288;SDS011;63105;46.158;14.604;2023-03-01T10:51:52;28.70;;;19.75;;
46288;SDS011;63105;46.158;14.604;2023-03-01T10:54:19;26.60;;;18.40;;
46288;SDS011;63105;46.158;14.604;2023-03-01T10:59:20;30.00;;;21.17;;
46288;SDS011;63105;46.158;14.604;2023-03-01T11:01:46;30.40;;;21.40;;
46288;SDS011;63105;46.158;14.604;2023-03-01T11:04:25;28.80;;;20.10;;
46288;SDS011;63105;46.158;14.604;2023-03-01T11:06:57;28.38;;;20.75;;
46288;SDS011;63105;46.158;14.604;2023-03-01T11:09:23;29.60;;;20.88;;
46288;SDS011;63105;46.158;14.604;2023-03-01T11:11:53;25.83;;;18.60;;
46288;SDS011;63105;46.158;14.604;2023-03-01T11:14:20;30.42;;;20.65;;
46288;SDS011;63105;46.158;14.604;2023-03-01T11:16:47;27.38;;;19.20;;
46288;SDS011;63105;46.158;14.604;2023-03-01T11:19:14;24.95;;;17.48;;
46288;SDS011;63105;46.158;14.604;2023-03-01T11:21:49;24.08;;;16.92;;
46288;SDS011;63105;46.158;14.604;2023-03-01T11:24:15;23.92;;;16.67;;
46288;SDS011;63105;46.158;14.604;2023-03-01T11:26:42;23.40;;;16.35;;
46288;SDS011;63105;46.158;14.604;2023-03-01T11:29:13;26.23;;;17.50;;
46288;SDS011;63105;46.158;14.604;2023-03-01T11:31:40;22.35;;;16.30;;
46288;SDS011;63105;46.158;14.604;2023-03-01T11:34:09;25.30;;;16.88;;
46288;SDS011;63105;46.158;14.604;2023-03-01T11:36:41;21.00;;;15.00;;
46288;SDS011;63105;46.158;14.604;2023-03-01T11:41:35;22.33;;;15.68;;
46288;SDS011;63105;46.158;14.604;2023-03-01T11:44:25;21.92;;;15.35;;
46288;SDS011;63105;46.158;14.604;2023-03-01T11:46:54;18.38;;;13.13;;
46288;SDS011;63105;46.158;14.604;2023-03-01T11:49:31;25.30;;;15.60;;
46288;SDS011;63105;46.158;14.604;2023-03-01T12:10:12;21.05;;;13.43;;
46288;SDS011;63105;46.158;14.604;2023-03-01T12:25:48;20.23;;;13.60;;
46288;SDS011;63105;46.158;14.604;2023-03-01T12:28:19;20.77;;;13.13;;
46288;SDS011;63105;46.158;14.604;2023-03-01T12:31:12;19.33;;;13.00;;
46288;SDS011;63105;46.158;14.604;2023-03-01T12:39:14;22.50;;;14.50;;
46288;SDS011;63105;46.158;14.604;2023-03-01T12:49:40;28.58;;;19.33;;
46288;SDS011;63105;46.158;14.604;2023-03-01T12:52:10;31.60;;;22.23;;
46288;SDS011;63105;46.158;14.604;2023-03-01T12:54:37;32.72;;;21.83;;
46288;SDS011;63105;46.158;14.604;2023-03-01T12:57:05;30.10;;;20.52;;
46288;SDS011;63105;46.158;14.604;2023-03-01T13:14:59;33.97;;;23.05;;
46288;SDS011;63105;46.158;14.604;2023-03-01T13:17:32;32.80;;;22.15;;
46288;SDS011;63105;46.158;14.604;2023-03-01T13:19:58;29.92;;;21.13;;
46288;SDS011;63105;46.158;14.604;2023-03-01T13:22:32;28.88;;;19.88;;
46288;SDS011;63105;46.158;14.604;2023-03-01T13:25:02;31.65;;;21.13;;
46288;SDS011;63105;46.158;14.604;2023-03-01T13:27:29;35.95;;;24.48;;
46288;SDS011;63105;46.158;14.604;2023-03-01T13:29:55;35.08;;;24.23;;
46288;SDS011;63105;46.158;14.604;2023-03-01T13:32:25;40.08;;;28.00;;
46288;SDS011;63105;46.158;14.604;2023-03-01T13:35:02;30.92;;;22.42;;
46288;SDS011;63105;46.158;14.604;2023-03-01T13:37:33;29.38;;;19.83;;
46288;SDS011;63105;46.158;14.604;2023-03-01T13:39:59;24.20;;;17.10;;
46288;SDS011;63105;46.158;14.604;2023-03-01T13:44:54;26.10;;;18.13;;
46288;SDS011;63105;46.158;14.604;2023-03-01T13:47:20;25.52;;;17.33;;
46288;SDS011;63105;46.158;14.604;2023-03-01T13:52:23;23.13;;;16.25;;
46288;SDS011;63105;46.158;14.604;2023-03-01T13:57:20;20.00;;;13.45;;
46288;SDS011;63105;46.158;14.604;2023-03-01T13:59:46;19.70;;;13.02;;
46288;SDS011;63105;46.158;14.604;2023-03-01T14:02:12;18.67;;;12.38;;
46288;SDS011;63105;46.158;14.604;2023-03-01T14:04:37;19.20;;;12.38;;
46288;SDS011;63105;46.158;14.604;2023-03-01T14:07:10;22.17;;;12.57;;
46288;SDS011;63105;46.158;14.604;2023-03-01T14:09:37;18.92;;;11.68;;
46288;SDS011;63105;46.158;14.604;2023-03-01T14:12:13;17.80;;;11.30;;
46288;SDS011;63105;46.158;14.604;2023-03-01T14:19:46;16.05;;;10.70;;
46288;SDS011;63105;46.158;14.604;2023-03-01T14:22:22;16.15;;;10.57;;
46288;SDS011;63105;46.158;14.604;2023-03-01T14:24:51;17.13;;;10.05;;
46288;SDS011;63105;46.158;14.604;2023-03-01T14:27:17;16.55;;;10.77;;
46288;SDS011;63105;46.158;14.604;2023-03-01T14:29:43;16.50;;;10.48;;
46288;SDS011;63105;46.158;14.604;2023-03-01T14:32:12;17.40;;;10.40;;
46288;SDS011;63105;46.158;14.604;2023-03-01T14:34:43;15.35;;;9.77;;
46288;SDS011;63105;46.158;14.604;2023-03-01T14:37:10;15.38;;;9.73;;
46288;SDS011;63105;46.158;14.604;2023-03-01T14:39:36;15.25;;;9.70;;
46288;SDS011;63105;46.158;14.604;2023-03-01T14:42:03;17.05;;;10.85;;
46288;SDS011;63105;46.158;14.604;2023-03-01T14:44:29;15.15;;;9.98;;
46288;SDS011;63105;46.158;14.604;2023-03-01T14:46:55;14.23;;;9.27;;
46288;SDS011;63105;46.158;14.604;2023-03-01T14:49:22;14.02;;;9.02;;
46288;SDS011;63105;46.158;14.604;2023-03-01T14:51:52;13.27;;;8.93;;
46288;SDS011;63105;46.158;14.604;2023-03-01T14:54:20;15.00;;;9.20;;
46288;SDS011;63105;46.158;14.604;2023-03-01T14:56:46;14.50;;;9.25;;
46288;SDS011;63105;46.158;14.604;2023-03-01T14:59:12;13.90;;;9.15;;
46288;SDS011;63105;46.158;14.604;2023-03-01T15:01:37;13.95;;;9.27;;
46288;SDS011;63105;46.158;14.604;2023-03-01T15:04:04;13.43;;;8.48;;
46288;SDS011;63105;46.158;14.604;2023-03-01T15:06:29;13.77;;;8.70;;
46288;SDS011;63105;46.158;14.604;2023-03-01T15:08:55;13.93;;;8.68;;
46288;SDS011;63105;46.158;14.604;2023-03-01T15:11:31;12.70;;;8.35;;
46288;SDS011;63105;46.158;14.604;2023-03-01T15:13:57;13.52;;;8.32;;
46288;SDS011;63105;46.158;14.604;2023-03-01T15:18:49;14.52;;;8.40;;
46288;SDS011;63105;46.158;14.604;2023-03-01T15:21:16;12.13;;;7.88;;
46288;SDS011;63105;46.158;14.604;2023-03-01T15:23:42;13.70;;;8.25;;
46288;SDS011;63105;46.158;14.604;2023-03-01T15:26:23;13.32;;;8.10;;
46288;SDS011;63105;46.158;14.604;2023-03-01T15:28:50;12.73;;;7.75;;
46288;SDS011;63105;46.158;14.604;2023-03-01T15:33:44;12.10;;;7.95;;
46288;SDS011;63105;46.158;14.604;2023-03-01T15:36:55;11.25;;;7.50;;
46288;SDS011;63105;46.158;14.604;2023-03-01T15:39:01;12.45;;;7.82;;
46288;SDS011;63105;46.158;14.604;2023-03-01T15:41:32;11.90;;;7.72;;
46288;SDS011;63105;46.158;14.604;2023-03-01T15:43:58;14.35;;;10.15;;
46288;SDS011;63105;46.158;14.604;2023-03-01T15:46:34;11.55;;;8.43;;
46288;SDS011;63105;46.158;14.604;2023-03-01T15:51:30;12.33;;;8.53;;
46288;SDS011;63105;46.158;14.604;2023-03-01T15:53:55;12.82;;;8.25;;
46288;SDS011;63105;46.158;14.604;2023-03-01T15:56:21;12.75;;;7.57;;
46288;SDS011;63105;46.158;14.604;2023-03-01T15:58:46;9.90;;;6.88;;
46288;SDS011;63105;46.158;14.604;2023-03-01T16:01:15;10.25;;;6.57;;
46288;SDS011;63105;46.158;14.604;2023-03-01T16:03:44;9.80;;;5.90;;